createdAt,value
2022-08-05T00:00:55.656Z,21.79
2022-08-05T00:15:54.746Z,21.47
2022-08-05T00:30:47.824Z,21.12
2022-08-05T00:45:44.173Z,21.17
2022-08-05T01:00:40.461Z,20.99
2022-08-05T01:15:36.894Z,21.04
2022-08-05T01:30:34.424Z,20.89
2022-08-05T01:45:28.565Z,20.75
2022-08-05T02:00:30.222Z,20.72
2022-08-05T02:15:20.635Z,20.66
2022-08-05T02:30:16.609Z,20.62
2022-08-05T02:45:12.805Z,20.39
2022-08-05T03:00:09.142Z,20.41
2022-08-05T03:15:06.710Z,19.75
2022-08-05T03:30:08.040Z,19.27
2022-08-05T03:44:57.324Z,18.94
2022-08-05T03:59:54.592Z,18.9
2022-08-05T04:14:49.591Z,18.83
2022-08-05T04:29:45.617Z,18.81
2022-08-05T04:44:41.070Z,18.49
2022-08-05T04:59:38.679Z,18.83
2022-08-05T05:14:33.451Z,18.8
2022-08-05T05:29:40.999Z,19.07
2022-08-05T05:44:36.143Z,19.15
2022-08-05T05:59:22.274Z,19.18
2022-08-05T06:14:18.174Z,19.44
2022-08-05T06:29:23.496Z,19.76
2022-08-05T06:44:11.601Z,19.9
2022-08-05T06:59:09.784Z,20.17
2022-08-05T07:14:04.902Z,20.3
2022-08-05T07:29:01.401Z,20.33
2022-08-05T07:43:57.143Z,20.19
2022-08-05T07:58:55.230Z,20.55
2022-08-05T08:14:00.596Z,20.6
2022-08-05T08:28:55.040Z,20.22
2022-08-05T08:45:17.342Z,20.24
2022-08-05T08:58:43.734Z,21.54
2022-08-05T09:13:50.753Z,21.69
2022-08-05T09:28:33.348Z,20.82
2022-08-05T09:43:40.298Z,22.02
2022-08-05T09:58:25.125Z,21.85
2022-08-05T10:13:21.679Z,21.24
2022-08-05T10:28:19.297Z,19.94
2022-08-05T10:43:13.119Z,19.64
2022-08-05T10:58:08.830Z,19.47
2022-08-05T11:13:04.546Z,18.72
2022-08-05T11:28:00.972Z,18.58
2022-08-05T11:42:56.348Z,18.81
2022-08-05T11:58:08.906Z,19.11
2022-08-05T12:12:58.581Z,19.54
2022-08-05T12:27:52.929Z,20.42
2022-08-05T12:42:40.577Z,20.37
2022-08-05T12:58:39.300Z,20.79
2022-08-05T13:12:33.708Z,22.99
2022-08-05T13:27:35.427Z,23.81
2022-08-05T13:42:28.409Z,22.08
2022-08-05T13:57:24.625Z,22.79
2022-08-05T14:12:32.370Z,23.18
2022-08-05T14:27:17.866Z,22.82
2022-08-05T14:42:19.736Z,22.99
2022-08-05T14:57:09.680Z,22.96
2022-08-05T15:12:05.508Z,23.12
2022-08-05T15:27:01.700Z,22.69
2022-08-05T15:41:59.397Z,22.58
2022-08-05T15:56:53.992Z,22.37
2022-08-05T16:11:52.967Z,22.33
2022-08-05T16:26:45.929Z,22.19
2022-08-05T16:42:13.223Z,22.1
2022-08-05T16:56:38.017Z,22.08
2022-08-05T17:11:36.005Z,22.31
2022-08-05T17:26:31.018Z,21.72
2022-08-05T17:42:17.007Z,21.69
2022-08-05T17:56:23.331Z,21.47
2022-08-05T18:11:23.458Z,21.28
2022-08-05T18:26:18.015Z,21.21
2022-08-05T18:41:54.399Z,21.07
2022-08-05T18:56:07.887Z,20.87
2022-08-05T19:11:04.989Z,20.68
2022-08-05T19:26:01.282Z,20.41
2022-08-05T19:40:55.763Z,20.19
2022-08-05T19:56:11.899Z,19.79
2022-08-05T20:10:49.516Z,19.55
2022-08-05T20:25:43.895Z,19.02
2022-08-05T20:40:40.015Z,18.79
2022-08-05T20:55:55.784Z,18.64
2022-08-05T21:10:32.614Z,18.27
2022-08-05T21:25:33.625Z,18.08
2022-08-05T21:40:24.871Z,17.68
2022-08-05T21:55:42.753Z,17.08
2022-08-05T22:10:16.739Z,16.69
2022-08-05T22:25:17.960Z,16.66
2022-08-05T22:40:08.571Z,16.39
2022-08-05T22:55:18.574Z,16
2022-08-05T23:10:02.265Z,16.17
2022-08-05T23:24:57.331Z,16.39
2022-08-05T23:39:54.903Z,16.24
2022-08-05T23:54:49.553Z,16.05
